Time;durP1;ratioP1;P1;durP2;ratioP2;P2;SDS_P1;SDS_P2;PMS_P1;PMS_P2;Temp;Humidity;BMP_temperature;BMP_pressure;BME280_temperature;BME280_humidity;BME280_pressure;Samples;Min_cycle;Max_cycle;Signal;HPM_P1;HPM_P2
2021/03/05 00:01:06;;;;;;;34.25;15.25;;;;;;;10.41;62.43;101209.09;1781053;80;21159;-46
2021/03/05 00:03:34;;;;;;;31.50;13.98;;;;;;;10.44;62.54;101218.16;1777813;80;21140;-47
2021/03/05 00:06:04;;;;;;;33.75;15.20;;;;;;;10.45;62.76;101209.46;1777876;80;21168;-46
2021/03/05 00:08:34;;;;;;;39.55;15.20;;;;;;;10.49;62.67;101199.43;1785394;80;21136;-47
2021/03/05 00:11:03;;;;;;;31.42;14.65;;;;;;;10.54;62.54;101197.64;1771438;80;21711;-46
2021/03/05 00:13:32;;;;;;;32.42;14.87;;;;;;;10.55;62.40;101200.67;1717071;83;21312;-46
2021/03/05 00:16:00;;;;;;;38.48;15.55;;;;;;;10.56;62.45;101201.94;1760665;80;21136;-46
2021/03/05 00:18:28;;;;;;;39.45;15.13;;;;;;;10.59;62.31;101200.58;1774282;80;21117;-47
2021/03/05 00:20:57;;;;;;;32.70;15.40;;;;;;;10.62;62.30;101199.68;1773658;80;21204;-46
2021/03/05 00:23:26;;;;;;;43.63;15.63;;;;;;;10.64;62.20;101196.18;1778410;80;21305;-47
2021/03/05 00:25:54;;;;;;;36.42;15.65;;;;;;;10.65;62.08;101190.08;1772694;80;21168;-47
2021/03/05 00:28:22;;;;;;;30.00;13.40;;;;;;;10.68;62.11;101180.06;1773422;80;21605;-46
2021/03/05 00:30:53;;;;;;;37.13;16.42;;;;;;;10.68;62.11;101176.16;1768983;80;21184;-46
2021/03/05 00:33:21;;;;;;;37.88;16.52;;;;;;;10.71;62.17;101177.87;1778458;80;21148;-46
2021/03/05 00:35:52;;;;;;;36.63;16.20;;;;;;;10.71;62.12;101176.13;1712070;83;21180;-47
2021/03/05 00:38:22;;;;;;;37.53;16.02;;;;;;;10.74;62.01;101172.16;1778057;80;21148;-46
2021/03/05 00:40:50;;;;;;;48.92;18.10;;;;;;;10.73;62.01;101174.36;1770450;80;21118;-47
2021/03/05 00:43:20;;;;;;;47.60;18.62;;;;;;;10.74;62.06;101181.27;1775505;80;21331;-46
2021/03/05 00:45:49;;;;;;;40.35;17.65;;;;;;;10.74;61.91;101176.06;1752774;81;21271;-46
2021/03/05 00:48:19;;;;;;;37.35;15.95;;;;;;;10.75;61.61;101166.09;1772924;81;21149;-47
2021/03/05 00:50:50;;;;;;;43.05;17.10;;;;;;;10.76;61.45;101163.05;1773253;81;21157;-46
2021/03/05 00:53:18;;;;;;;43.02;17.55;;;;;;;10.75;61.34;101156.11;1773087;81;21322;-47
2021/03/05 00:55:48;;;;;;;46.55;16.25;;;;;;;10.75;61.11;101154.81;1709063;84;21206;-47
2021/03/05 00:58:18;;;;;;;38.08;15.35;;;;;;;10.73;61.03;101148.34;1768525;81;21114;-46
2021/03/05 01:00:47;;;;;;;33.13;15.18;;;;;;;10.71;61.06;101153.14;1764618;81;21203;-47
2021/03/05 01:03:18;;;;;;;37.58;15.45;;;;;;;10.69;61.06;101156.21;1709023;84;21195;-46
2021/03/05 01:05:46;;;;;;;35.28;15.75;;;;;;;10.67;60.93;101149.73;1771541;81;21612;-46
2021/03/05 01:08:16;;;;;;;33.00;14.55;;;;;;;10.64;60.83;101138.93;1709120;84;21329;-46
2021/03/05 01:10:47;;;;;;;29.27;16.05;;;;;;;10.63;60.99;101146.77;1769945;80;21140;-46
2021/03/05 01:13:15;;;;;;;31.87;14.95;;;;;;;10.62;60.94;101129.42;1709727;84;21595;-46
2021/03/05 01:15:44;;;;;;;31.35;15.53;;;;;;;10.61;60.96;101129.02;1776498;81;21699;-47
2021/03/05 01:18:14;;;;;;;39.45;16.48;;;;;;;10.61;60.93;101125.95;1772878;81;21188;-46
2021/03/05 01:20:43;;;;;;;33.45;15.20;;;;;;;10.61;60.81;101114.70;1703479;84;21219;-46
2021/03/05 01:23:14;;;;;;;38.05;16.00;;;;;;;10.59;60.72;101113.88;1770901;81;21168;-47
2021/03/05 01:25:42;;;;;;;53.70;18.30;;;;;;;10.58;60.45;101114.73;1765657;81;21604;-47
2021/03/05 01:28:12;;;;;;;59.83;21.02;;;;;;;10.56;59.91;101126.91;1764954;81;21138;-46
2021/03/05 01:30:40;;;;;;;45.15;17.75;;;;;;;10.53;59.75;101125.68;1769851;81;21154;-47
2021/03/05 01:33:09;;;;;;;40.48;14.55;;;;;;;10.50;59.75;101127.02;1770084;81;21148;-47
2021/03/05 01:35:38;;;;;;;25.68;14.20;;;;;;;10.44;59.89;101131.87;1778217;81;21145;-46
2021/03/05 01:38:07;;;;;;;29.95;14.05;;;;;;;10.37;60.23;101126.77;1708949;84;21148;-46
2021/03/05 01:40:38;;;;;;;33.55;14.93;;;;;;;10.36;60.34;101119.86;1764160;81;21136;-46
2021/03/05 01:43:12;;;;;;;30.72;14.05;;;;;;;10.35;60.33;101123.33;1758244;81;21530;-46
2021/03/05 01:45:41;;;;;;;33.58;15.05;;;;;;;10.33;60.41;101131.17;1769684;81;21553;-46
2021/03/05 01:48:16;;;;;;;30.30;14.78;;;;;;;10.32;60.49;101127.30;1769571;81;21570;-46
2021/03/05 01:51:17;;;;;;;28.02;13.30;;;;;;;10.32;60.55;101135.09;1773016;81;21161;-46
2021/03/05 01:53:46;;;;;;;25.40;13.95;;;;;;;10.31;60.56;101122.96;1760955;81;21298;-46
2021/03/05 01:56:28;;;;;;;25.90;13.40;;;;;;;10.31;60.48;101129.03;1774399;81;21153;-46
2021/03/05 01:58:57;;;;;;;23.60;13.28;;;;;;;10.30;60.34;101123.86;1681433;85;21185;-47
2021/03/05 02:01:26;;;;;;;25.90;14.18;;;;;;;10.26;60.15;101124.79;1681579;85;21620;-46
2021/03/05 02:03:55;;;;;;;30.90;13.72;;;;;;;10.24;59.98;101131.29;1681797;85;21189;-46
2021/03/05 02:06:23;;;;;;;30.10;14.95;;;;;;;10.20;59.89;101123.11;1648840;87;21194;-46
2021/03/05 02:08:52;;;;;;;43.13;17.60;;;;;;;10.19;59.82;101117.51;1681962;85;21774;-46
2021/03/05 02:11:24;;;;;;;40.78;16.87;;;;;;;10.16;59.76;101120.61;1681858;85;21180;-46
2021/03/05 02:13:54;;;;;;;41.30;17.77;;;;;;;10.10;59.79;101119.36;1681967;85;21609;-46
2021/03/05 02:16:53;;;;;;;32.58;16.12;;;;;;;10.07;59.92;101124.59;1681656;85;21209;-46
2021/03/05 02:19:45;;;;;;;42.05;15.43;;;;;;;10.04;60.12;101127.21;1679732;85;21165;-46
2021/03/05 02:23:09;;;;;;;37.93;16.97;;;;;;;10.03;60.27;101114.68;1682055;85;21311;-46
2021/03/05 02:25:44;;;;;;;40.40;17.55;;;;;;;10.01;60.40;101115.14;1681108;85;21193;-46
2021/03/05 02:28:17;;;;;;;39.33;17.35;;;;;;;9.99;60.48;101112.13;1678586;85;21172;-46
2021/03/05 02:31:11;;;;;;;46.58;17.40;;;;;;;9.97;60.52;101107.40;1681989;85;21177;-47
2021/03/05 02:33:53;;;;;;;34.08;16.52;;;;;;;9.97;60.65;101113.89;1677872;85;21190;-46
2021/03/05 02:36:26;;;;;;;43.38;17.10;;;;;;;10.00;60.51;101113.84;1741808;80;21153;-46
2021/03/05 02:39:02;;;;;;;37.70;17.23;;;;;;;9.98;60.48;101116.47;1692586;85;21153;-47
2021/03/05 02:41:38;;;;;;;33.48;15.60;;;;;;;9.99;60.40;101109.53;1771225;79;23611;-46
2021/03/05 02:44:09;;;;;;;29.40;14.33;;;;;;;9.92;60.47;101118.28;1732526;82;21140;-47
2021/03/05 02:46:40;;;;;;;33.35;14.68;;;;;;;9.91;60.54;101116.58;1742537;82;21168;-46
2021/03/05 02:49:12;;;;;;;40.40;17.32;;;;;;;9.95;60.45;101114.36;1736284;81;21163;-46
2021/03/05 02:51:40;;;;;;;40.30;17.85;;;;;;;9.93;60.17;101114.39;1738725;82;21191;-46
2021/03/05 02:54:08;;;;;;;35.10;17.25;;;;;;;9.85;59.76;101111.87;1740252;82;21224;-45
2021/03/05 02:56:39;;;;;;;32.23;16.07;;;;;;;9.78;59.83;101121.94;1706358;83;21561;-46
2021/03/05 02:59:08;;;;;;;29.32;15.38;;;;;;;9.75;59.89;101113.30;1739586;82;21164;-46
2021/03/05 03:01:37;;;;;;;30.95;14.45;;;;;;;9.74;60.01;101122.86;1736976;81;21152;-46
2021/03/05 03:04:06;;;;;;;33.98;15.50;;;;;;;9.71;60.07;101115.09;1741318;82;21164;-46
2021/03/05 03:06:35;;;;;;;25.55;14.38;;;;;;;9.71;59.96;101120.28;1732729;82;21330;-46
2021/03/05 03:09:04;;;;;;;23.75;13.90;;;;;;;9.71;59.83;101117.69;1744440;82;21121;-46
2021/03/05 03:11:33;;;;;;;33.55;16.42;;;;;;;9.68;59.70;101118.17;1732609;82;21212;-46
2021/03/05 03:14:02;;;;;;;25.05;14.30;;;;;;;9.65;59.79;101115.59;1741534;82;21216;-46
2021/03/05 03:16:30;;;;;;;34.15;16.00;;;;;;;9.60;60.05;101124.73;1737216;82;21157;-46
2021/03/05 03:18:59;;;;;;;24.67;14.53;;;;;;;9.62;60.05;101120.84;1737267;82;21140;-46
2021/03/05 03:21:28;;;;;;;30.97;15.48;;;;;;;9.63;59.90;101124.72;1741088;82;21294;-46
2021/03/05 03:23:57;;;;;;;25.00;13.70;;;;;;;9.62;59.79;101125.58;1734065;82;21151;-46
2021/03/05 03:26:25;;;;;;;24.67;14.00;;;;;;;9.60;59.67;101127.34;1740912;82;21798;-47
2021/03/05 03:28:54;;;;;;;21.17;13.22;;;;;;;9.57;59.57;101120.89;1740358;82;21145;-47
2021/03/05 03:31:23;;;;;;;22.62;13.70;;;;;;;9.56;59.65;101125.66;1720726;82;21152;-46
2021/03/05 03:33:52;;;;;;;20.75;12.60;;;;;;;9.54;59.54;101125.28;1743678;81;21149;-46
2021/03/05 03:36:20;;;;;;;19.02;13.05;;;;;;;9.51;59.59;101132.66;1731880;82;21361;-46
2021/03/05 03:38:49;;;;;;;17.82;12.15;;;;;;;9.50;59.70;101132.69;1738884;82;21314;-46
2021/03/05 03:41:18;;;;;;;21.02;12.85;;;;;;;9.46;59.69;101120.61;1731409;82;21283;-46
2021/03/05 03:43:47;;;;;;;13.88;10.23;;;;;;;9.42;59.69;101119.77;1724252;82;21153;-47
2021/03/05 03:46:15;;;;;;;10.95;8.43;;;;;;;9.39;59.70;101125.01;1724035;82;21338;-46
2021/03/05 03:48:52;;;;;;;10.10;8.00;;;;;;;9.37;59.63;101116.38;1728963;81;21113;-46
2021/03/05 03:51:24;;;;;;;7.75;6.78;;;;;;;9.37;59.57;101122.00;1657006;86;21173;-46
2021/03/05 03:53:52;;;;;;;6.60;5.87;;;;;;;9.34;59.32;101124.19;1657233;86;21205;-46
2021/03/05 03:56:21;;;;;;;6.45;5.85;;;;;;;9.30;58.87;101126.82;1656741;86;21204;-46
2021/03/05 03:58:49;;;;;;;5.90;5.30;;;;;;;9.24;58.71;101123.00;1657803;86;21236;-46
2021/03/05 04:01:18;;;;;;;8.25;6.22;;;;;;;9.14;58.77;101122.24;1656590;86;21330;-46
2021/03/05 04:03:49;;;;;;;6.92;5.92;;;;;;;9.09;58.49;101124.01;1656805;86;21306;-47
2021/03/05 04:06:20;;;;;;;6.12;5.50;;;;;;;9.03;58.21;101129.27;1651561;86;21141;-46
2021/03/05 04:08:54;;;;;;;5.72;4.95;;;;;;;8.99;58.20;101127.14;1788040;79;22249;-46
2021/03/05 04:11:24;;;;;;;4.65;4.25;;;;;;;8.90;58.15;101126.38;1787452;80;21596;-46
2021/03/05 04:13:53;;;;;;;5.67;5.17;;;;;;;8.83;58.11;101132.48;1745246;81;21143;-46
2021/03/05 04:16:22;;;;;;;4.65;4.25;;;;;;;8.74;58.22;101132.55;1750752;81;21132;-46
2021/03/05 04:18:53;;;;;;;5.17;4.65;;;;;;;8.65;58.40;101130.05;1750671;81;21160;-46
2021/03/05 04:21:36;;;;;;;5.30;4.62;;;;;;;8.59;58.59;101122.31;1751007;81;21282;-46
2021/03/05 04:24:06;;;;;;;5.90;4.67;;;;;;;8.56;58.62;101132.70;1680509;85;21177;-45
2021/03/05 04:26:34;;;;;;;6.62;5.30;;;;;;;8.52;58.34;101138.78;1666438;85;21183;-46
2021/03/05 04:29:04;;;;;;;5.47;4.97;;;;;;;8.44;58.29;101131.49;1668846;85;21179;-46
2021/03/05 04:31:33;;;;;;;5.62;5.12;;;;;;;8.39;58.22;101133.28;1668638;85;21198;-46
2021/03/05 04:34:02;;;;;;;7.30;5.60;;;;;;;8.35;58.29;101140.62;1667615;85;21215;-46
2021/03/05 04:36:31;;;;;;;5.87;5.20;;;;;;;8.31;58.23;101138.91;1674282;85;21684;-46
2021/03/05 04:39:01;;;;;;;5.72;5.12;;;;;;;8.28;58.06;101138.95;1658128;85;21164;-46
2021/03/05 04:41:29;;;;;;;8.23;5.70;;;;;;;8.27;57.98;101150.17;1669500;85;21337;-45
2021/03/05 04:44:00;;;;;;;7.50;6.80;;;;;;;8.17;58.14;101137.26;1670224;85;21179;-46
2021/03/05 04:46:28;;;;;;;9.30;6.53;;;;;;;8.13;58.01;101143.33;1665864;85;21199;-46
2021/03/05 04:48:57;;;;;;;6.55;5.70;;;;;;;8.08;58.11;101137.30;1668318;85;21207;-46
2021/03/05 04:51:25;;;;;;;7.20;5.22;;;;;;;8.04;58.28;101143.37;1673303;85;21191;-46
2021/03/05 04:53:54;;;;;;;7.53;5.58;;;;;;;8.03;58.31;101139.50;1672420;85;21679;-45
2021/03/05 04:56:22;;;;;;;6.33;5.72;;;;;;;8.01;58.25;101149.88;1670241;85;21172;-46
2021/03/05 04:58:53;;;;;;;6.75;6.05;;;;;;;8.04;58.18;101145.95;1657700;85;21195;-46
2021/03/05 05:01:21;;;;;;;7.37;6.28;;;;;;;8.04;58.17;101138.19;1667422;85;21202;-46
2021/03/05 05:03:50;;;;;;;6.40;5.80;;;;;;;8.04;58.19;101137.31;1675612;85;21388;-46
2021/03/05 05:06:18;;;;;;;6.25;5.22;;;;;;;8.04;58.20;101125.23;1664549;85;21289;-46
2021/03/05 05:08:47;;;;;;;5.97;5.45;;;;;;;8.06;58.28;101127.38;1656919;85;21350;-45
2021/03/05 05:11:16;;;;;;;7.10;6.10;;;;;;;8.09;58.27;101127.38;1642409;86;21334;-46
2021/03/05 05:13:46;;;;;;;6.72;5.95;;;;;;;8.12;58.26;101131.22;1700507;84;21188;-45
2021/03/05 05:16:15;;;;;;;8.95;7.40;;;;;;;8.15;58.26;101131.22;1702609;84;21204;-46
2021/03/05 05:18:44;;;;;;;9.18;7.22;;;;;;;8.18;58.25;101133.78;1692208;83;21294;-46
2021/03/05 05:21:12;;;;;;;11.95;6.85;;;;;;;8.24;58.25;101141.98;1742816;82;21144;-46
2021/03/05 05:23:41;;;;;;;10.93;8.15;;;;;;;8.26;58.35;101135.51;1755974;82;21144;-46
2021/03/05 05:26:10;;;;;;;12.65;9.08;;;;;;;8.28;58.49;101136.36;1755912;82;21602;-46
2021/03/05 05:28:38;;;;;;;15.85;10.50;;;;;;;8.38;58.54;101144.08;1755687;81;21649;-46
2021/03/05 05:31:06;;;;;;;15.53;10.90;;;;;;;8.43;58.68;101154.42;1755749;82;21282;-46
2021/03/05 05:33:35;;;;;;;15.28;11.43;;;;;;;8.44;58.72;101153.53;1755857;82;21184;-46
2021/03/05 05:36:05;;;;;;;13.28;9.93;;;;;;;8.44;58.99;101152.23;1755746;82;21408;-46
2021/03/05 05:38:33;;;;;;;18.20;12.60;;;;;;;8.44;59.24;101162.61;1755697;81;21199;-46
2021/03/05 05:41:02;;;;;;;20.70;12.73;;;;;;;8.39;59.43;101164.39;1755692;82;21323;-46
2021/03/05 05:43:31;;;;;;;13.45;10.93;;;;;;;8.38;59.70;101164.81;1755737;81;21552;-46
2021/03/05 05:46:06;;;;;;;12.03;10.00;;;;;;;8.33;59.92;101176.06;1755846;81;21275;-46
2021/03/05 05:48:39;;;;;;;11.33;9.95;;;;;;;8.27;60.10;101179.99;1729325;82;21159;-46
2021/03/05 05:51:23;;;;;;;18.30;9.40;;;;;;;8.22;60.51;101187.33;1711143;82;21182;-46
2021/03/05 05:54:01;;;;;;;10.32;8.80;;;;;;;8.28;61.02;101183.03;1772034;79;22504;-46
2021/03/05 05:56:29;;;;;;;9.30;8.33;;;;;;;8.31;61.43;101190.77;1736593;82;21576;-46
2021/03/05 05:59:00;;;;;;;11.70;9.30;;;;;;;8.32;61.63;101186.03;1739724;82;21156;-47
2021/03/05 06:01:34;;;;;;;11.63;9.98;;;;;;;8.33;61.98;101196.81;1740235;82;21151;-46
2021/03/05 06:04:04;;;;;;;15.18;12.75;;;;;;;8.30;62.59;101199.01;1740977;82;21172;-46
2021/03/05 06:06:32;;;;;;;17.77;13.90;;;;;;;8.36;63.18;101198.10;1741208;82;21180;-46
2021/03/05 06:09:01;;;;;;;22.30;16.35;;;;;;;8.39;63.79;101200.70;1738683;82;21117;-46
2021/03/05 06:11:35;;;;;;;28.25;19.17;;;;;;;8.47;64.33;101207.99;1737822;82;21140;-46
2021/03/05 06:14:11;;;;;;;27.25;18.62;;;;;;;8.63;64.75;101210.48;1698977;82;21367;-46
2021/03/05 06:16:53;;;;;;;23.85;16.80;;;;;;;8.83;64.66;101209.03;1691489;83;21208;-46
2021/03/05 06:19:25;;;;;;;25.80;18.25;;;;;;;9.00;64.48;101219.69;1692302;83;21164;-47
2021/03/05 06:21:55;;;;;;;30.82;19.15;;;;;;;9.15;64.30;101225.66;1690106;83;21177;-46
2021/03/05 06:24:23;;;;;;;23.50;17.40;;;;;;;9.24;64.08;101225.56;1700623;83;21196;-46
2021/03/05 06:27:00;;;;;;;27.17;17.50;;;;;;;9.30;63.93;101218.58;1700754;83;21192;-46
2021/03/05 06:29:45;;;;;;;21.48;16.25;;;;;;;9.38;63.97;101213.30;1699555;83;21176;-48
2021/03/05 06:32:18;;;;;;;24.45;16.73;;;;;;;9.49;64.01;101216.67;1700129;83;21207;-46
2021/03/05 06:34:49;;;;;;;29.67;19.92;;;;;;;9.59;63.71;101219.16;1698558;83;21156;-48
2021/03/05 06:37:19;;;;;;;30.68;17.82;;;;;;;9.65;63.30;101226.02;1703831;83;21168;-47
2021/03/05 06:39:58;;;;;;;30.00;19.67;;;;;;;9.63;63.21;101216.95;1699820;83;21157;-47
2021/03/05 06:42:26;;;;;;;27.05;19.60;;;;;;;9.63;63.32;101224.75;1699387;83;21167;-47
2021/03/05 06:44:55;;;;;;;24.47;17.55;;;;;;;9.61;63.41;101228.23;1701475;83;21315;-47
2021/03/05 06:47:26;;;;;;;25.57;18.23;;;;;;;9.66;63.27;101226.03;1700601;83;21298;-47
2021/03/05 06:49:55;;;;;;;26.00;18.67;;;;;;;9.73;63.08;101223.77;1700796;83;21242;-46
2021/03/05 06:52:35;;;;;;;25.20;18.57;;;;;;;9.83;62.74;101229.28;1701399;83;21172;-46
2021/03/05 06:55:04;;;;;;;24.47;17.90;;;;;;;9.90;62.74;101231.81;1689686;84;21177;-47
2021/03/05 06:57:32;;;;;;;26.57;18.65;;;;;;;10.02;62.60;101226.03;1700390;84;21261;-47
2021/03/05 07:00:02;;;;;;;25.25;18.15;;;;;;;10.16;62.37;101230.66;1707469;84;21220;-46
2021/03/05 07:02:31;;;;;;;26.90;18.70;;;;;;;10.33;62.11;101233.05;1699272;84;21200;-46
2021/03/05 07:05:00;;;;;;;24.47;18.02;;;;;;;10.55;61.74;101233.20;1697599;84;21636;-47
2021/03/05 07:07:28;;;;;;;30.27;18.95;;;;;;;10.75;60.99;101237.67;1698798;84;21625;-46
2021/03/05 07:09:57;;;;;;;26.90;19.00;;;;;;;10.84;60.45;101238.81;1705648;82;21173;-47
2021/03/05 07:12:26;;;;;;;28.35;18.48;;;;;;;10.93;60.28;101242.59;1736817;82;21338;-47
2021/03/05 07:15:06;;;;;;;25.35;18.73;;;;;;;11.03;60.10;101240.69;1737720;82;21565;-47
2021/03/05 07:17:34;;;;;;;27.85;18.85;;;;;;;11.11;59.90;101243.59;1732726;82;21170;-47
2021/03/05 07:20:06;;;;;;;28.47;20.02;;;;;;;11.23;59.55;101234.27;1729098;82;21144;-46
2021/03/05 07:22:34;;;;;;;27.10;18.92;;;;;;;11.28;59.30;101236.81;1705519;83;21159;-46
2021/03/05 07:25:04;;;;;;;27.60;19.55;;;;;;;11.27;58.96;101234.64;1693876;84;21148;-46
2021/03/05 07:27:38;;;;;;;28.23;19.27;;;;;;;11.23;58.91;101234.74;1703452;84;21152;-46
2021/03/05 07:30:17;;;;;;;27.95;19.95;;;;;;;11.20;59.11;101234.34;1710711;84;21632;-46
2021/03/05 07:32:47;;;;;;;27.37;20.10;;;;;;;11.23;59.05;101236.87;1695030;84;21167;-47
2021/03/05 07:35:37;;;;;;;25.90;19.82;;;;;;;11.22;58.85;101241.69;1694940;84;21129;-46
2021/03/05 07:38:15;;;;;;;28.17;20.77;;;;;;;11.21;59.08;101230.84;1675551;84;21180;-47
2021/03/05 07:40:44;;;;;;;28.12;20.60;;;;;;;11.22;59.11;101233.87;1694452;84;21307;-46
2021/03/05 07:43:13;;;;;;;28.30;20.05;;;;;;;11.25;59.14;101235.11;1694856;84;21180;-47
2021/03/05 07:45:42;;;;;;;29.07;22.13;;;;;;;11.34;59.09;101236.70;1674834;84;21576;-46
2021/03/05 07:48:12;;;;;;;32.70;22.73;;;;;;;11.41;58.97;101243.11;1692083;84;21542;-47
2021/03/05 07:50:41;;;;;;;41.53;23.38;;;;;;;11.48;58.76;101251.22;1692142;84;21196;-47
2021/03/05 07:53:10;;;;;;;30.70;21.48;;;;;;;11.55;58.78;101247.20;1689020;83;21188;-47
2021/03/05 07:55:42;;;;;;;38.95;22.93;;;;;;;11.64;58.43;101245.73;1682110;84;21157;-47
2021/03/05 07:58:10;;;;;;;;;;;;;;;11.73;58.17;101240.37;1658568;86;21193;-44
2021/03/05 08:00:46;;;;;;;39.60;26.05;;;;;;;11.78;57.25;101238.55;1628887;88;20196;-47
2021/03/05 08:03:18;;;;;;;40.35;28.35;;;;;;;11.84;56.65;101239.73;1672023;86;21129;-47
2021/03/05 08:05:48;;;;;;;37.38;26.55;;;;;;;11.89;55.50;101236.61;1691406;85;21176;-47
2021/03/05 08:08:20;;;;;;;46.18;32.20;;;;;;;11.96;54.72;101239.49;1691541;85;21587;-47
2021/03/05 08:10:54;;;;;;;50.98;39.83;;;;;;;12.00;53.56;101241.15;1691374;85;21599;-46
2021/03/05 08:13:51;;;;;;;66.77;46.53;;;;;;;12.01;52.75;101241.58;1691416;85;21239;-46
2021/03/05 08:16:33;;;;;;;51.50;38.60;;;;;;;12.00;52.17;101228.98;1690027;85;21163;-46
2021/03/05 08:19:14;;;;;;;57.38;38.65;;;;;;;12.04;51.88;101234.55;1690496;85;21158;-46
2021/03/05 08:21:58;;;;;;;44.40;30.30;;;;;;;12.13;52.11;101229.16;1690236;85;21159;-48
2021/03/05 08:24:40;;;;;;;36.25;27.00;;;;;;;12.18;51.65;101235.12;1691288;85;21169;-47
2021/03/05 08:27:14;;;;;;;34.20;26.15;;;;;;;12.19;52.24;101234.24;1685661;85;21219;-47
2021/03/05 08:30:04;;;;;;;34.58;25.65;;;;;;;12.31;51.82;101230.50;1691468;85;21203;-46
2021/03/05 08:32:38;;;;;;;35.80;25.90;;;;;;;12.38;51.33;101225.58;1686153;85;21203;-46
2021/03/05 08:35:18;;;;;;;33.78;23.67;;;;;;;12.44;51.07;101228.49;1691274;85;21140;-45
2021/03/05 08:37:51;;;;;;;35.70;23.47;;;;;;;12.46;50.57;101229.32;1685493;85;21603;-46
2021/03/05 08:40:34;;;;;;;28.87;22.07;;;;;;;12.48;50.30;101233.63;1803178;79;23033;-46
2021/03/05 08:43:23;;;;;;;31.27;23.50;;;;;;;12.37;50.30;101234.73;1716633;83;21323;-47
2021/03/05 08:46:03;;;;;;;27.93;21.25;;;;;;;12.30;50.82;101237.07;1711086;83;21220;-47
2021/03/05 08:48:45;;;;;;;29.02;22.20;;;;;;;12.26;51.21;101238.89;1809623;79;23001;-46
2021/03/05 08:51:21;;;;;;;29.57;22.05;;;;;;;12.21;51.11;101251.16;1783661;80;21176;-46
2021/03/05 08:53:56;;;;;;;28.92;22.02;;;;;;;12.14;51.04;101257.37;1777107;80;21187;-47
2021/03/05 08:56:30;;;;;;;30.60;22.55;;;;;;;12.07;51.37;101259.72;1777471;80;21160;-46
2021/03/05 08:59:04;;;;;;;28.77;21.20;;;;;;;12.01;51.67;101257.23;1745305;81;21161;-46
2021/03/05 09:01:35;;;;;;;27.35;21.05;;;;;;;11.98;51.95;101265.97;1716978;83;21154;-46
2021/03/05 09:04:17;;;;;;;26.97;19.60;;;;;;;11.99;52.29;101266.83;1712816;83;21172;-47
2021/03/05 09:06:50;;;;;;;24.00;19.35;;;;;;;12.00;52.33;101263.31;1697412;83;21138;-47
2021/03/05 09:09:22;;;;;;;27.90;21.62;;;;;;;12.01;52.36;101265.05;1677812;84;21247;-47
2021/03/05 09:12:13;;;;;;;25.75;20.85;;;;;;;12.03;52.12;101267.19;1712603;81;21224;-46
2021/03/05 09:14:44;;;;;;;30.80;22.42;;;;;;;12.02;52.01;101264.15;1710139;83;21168;-47
2021/03/05 09:17:18;;;;;;;28.07;21.90;;;;;;;12.05;51.96;101264.10;1805308;79;22751;-48
2021/03/05 09:19:47;;;;;;;29.75;22.27;;;;;;;12.00;51.85;101261.58;1775067;80;21143;-46
2021/03/05 09:22:22;;;;;;;39.78;31.25;;;;;;;12.01;52.06;101265.89;1781128;80;21180;-46
2021/03/05 09:25:00;;;;;;;35.90;24.27;;;;;;;12.07;52.15;101268.41;1771606;80;21143;-47
2021/03/05 09:27:35;;;;;;;27.67;21.93;;;;;;;12.14;51.97;101270.42;1782799;80;21163;-46
2021/03/05 09:30:19;;;;;;;33.10;23.87;;;;;;;12.18;51.87;101262.95;1770471;80;21584;-46
2021/03/05 09:32:53;;;;;;;29.57;22.70;;;;;;;12.22;51.75;101267.21;1774957;80;21285;-46
2021/03/05 09:35:26;;;;;;;26.77;20.90;;;;;;;12.26;51.64;101268.90;1777315;80;21147;-46
2021/03/05 09:37:55;;;;;;;28.67;21.73;;;;;;;12.32;51.59;101264.86;1775725;80;21144;-46
2021/03/05 09:40:25;;;;;;;24.02;19.42;;;;;;;12.39;51.36;101274.70;1773863;80;21633;-46
2021/03/05 09:42:57;;;;;;;24.95;19.85;;;;;;;12.42;50.79;101276.81;1775921;80;21147;-47
2021/03/05 09:45:51;;;;;;;27.60;21.15;;;;;;;12.40;50.77;101282.52;1758533;80;21687;-46
2021/03/05 09:48:32;;;;;;;26.52;20.97;;;;;;;12.36;51.12;101275.64;1787156;80;21709;-47
2021/03/05 09:51:04;;;;;;;25.40;19.98;;;;;;;12.40;51.05;101277.30;1779149;80;21176;-47
2021/03/05 09:53:35;;;;;;;28.17;22.10;;;;;;;12.43;50.65;101277.22;1698617;84;21666;-46
2021/03/05 09:56:08;;;;;;;28.83;21.80;;;;;;;12.42;50.59;101277.26;1700302;84;21209;-47
2021/03/05 09:58:36;;;;;;;25.65;20.20;;;;;;;12.40;50.47;101281.66;1693594;84;21190;-46
2021/03/05 10:01:05;;;;;;;27.25;20.27;;;;;;;12.35;50.64;101282.17;1695330;84;21332;-47
2021/03/05 10:03:35;;;;;;;25.50;19.05;;;;;;;12.32;51.04;101280.52;1705272;84;21190;-47
2021/03/05 10:06:04;;;;;;;23.05;18.70;;;;;;;12.33;51.26;101286.12;1701322;84;21178;-46
2021/03/05 10:08:33;;;;;;;25.55;20.05;;;;;;;12.37;51.32;101282.56;1701380;84;21818;-46
2021/03/05 10:11:09;;;;;;;26.35;20.35;;;;;;;12.40;51.35;101282.52;1700675;84;21147;-47
2021/03/05 10:13:54;;;;;;;23.98;20.15;;;;;;;12.42;51.44;101280.73;1666555;84;21194;-46
2021/03/05 10:16:27;;;;;;;27.17;19.87;;;;;;;12.45;51.19;101284.56;1699543;82;21135;-47
2021/03/05 10:19:05;;;;;;;27.15;20.95;;;;;;;12.47;51.24;101291.92;1686178;84;21773;-47
2021/03/05 10:21:45;;;;;;;25.35;21.42;;;;;;;12.53;50.99;101294.40;1811202;79;22996;-46
2021/03/05 10:24:16;;;;;;;25.05;20.35;;;;;;;12.45;51.01;101295.01;1786276;80;21611;-47
2021/03/05 10:27:14;;;;;;;23.83;19.05;;;;;;;12.42;51.26;101293.78;1780016;80;21148;-47
2021/03/05 10:29:59;;;;;;;22.67;19.10;;;;;;;12.42;51.40;101292.48;1766104;80;21307;-47
2021/03/05 10:35:16;;;;;;;24.87;18.82;;;;;;;12.49;51.38;101284.91;1776084;79;23062;-47
2021/03/05 10:37:45;;;;;;;25.00;19.32;;;;;;;12.54;51.38;101288.30;1734564;82;21156;-47
2021/03/05 10:40:15;;;;;;;22.62;17.45;;;;;;;12.60;51.25;101289.47;1740030;82;21698;-46
2021/03/05 10:42:43;;;;;;;23.30;18.60;;;;;;;12.63;51.43;101290.70;1737870;81;21187;-46
2021/03/05 10:45:12;;;;;;;26.52;19.75;;;;;;;12.68;51.25;101292.77;1739051;82;21302;-47
2021/03/05 10:47:40;;;;;;;26.12;20.82;;;;;;;12.72;51.35;101285.29;1732738;82;21648;-48
2021/03/05 10:50:10;;;;;;;25.17;19.30;;;;;;;12.75;51.60;101283.93;1740561;82;21149;-46
2021/03/05 10:52:39;;;;;;;24.55;18.55;;;;;;;12.80;51.44;101288.59;1735534;82;21219;-47
2021/03/05 10:55:10;;;;;;;24.47;18.48;;;;;;;12.85;51.34;101286.74;1743451;82;21274;-46
2021/03/05 10:57:41;;;;;;;21.87;17.23;;;;;;;12.92;51.66;101286.16;1732271;82;21278;-46
2021/03/05 11:00:13;;;;;;;27.40;17.75;;;;;;;12.97;51.47;101283.84;1730163;82;21157;-47
2021/03/05 11:02:42;;;;;;;23.62;18.92;;;;;;;13.05;51.45;101285.86;1736815;81;21148;-46
2021/03/05 11:05:11;;;;;;;24.30;18.92;;;;;;;13.13;51.16;101293.98;1737903;82;21196;-48
2021/03/05 11:07:40;;;;;;;23.45;19.45;;;;;;;13.20;50.86;101290.31;1744965;82;21148;-47
2021/03/05 11:10:09;;;;;;;30.10;20.37;;;;;;;13.25;50.83;101282.77;1739026;82;21208;-47
2021/03/05 11:12:37;;;;;;;29.55;21.57;;;;;;;13.30;50.74;101283.96;1739541;82;21167;-47
2021/03/05 11:15:08;;;;;;;28.02;21.60;;;;;;;13.33;50.56;101282.59;1741260;82;21189;-47
2021/03/05 11:17:36;;;;;;;32.88;21.17;;;;;;;13.33;50.40;101277.37;1733633;82;21591;-47
2021/03/05 11:20:06;;;;;;;31.17;23.00;;;;;;;13.37;50.43;101264.63;1744511;82;21157;-47
2021/03/05 11:22:34;;;;;;;27.27;21.55;;;;;;;13.39;50.22;101269.38;1732072;82;21573;-46
2021/03/05 11:25:05;;;;;;;26.62;21.70;;;;;;;13.41;50.12;101258.43;1742301;82;21330;-47
2021/03/05 11:27:35;;;;;;;30.12;21.48;;;;;;;13.43;50.05;101256.64;1701195;83;21145;-47
2021/03/05 11:30:04;;;;;;;26.62;20.62;;;;;;;13.48;50.17;101253.44;1706430;83;21164;-47
2021/03/05 11:32:34;;;;;;;27.82;19.80;;;;;;;13.56;50.14;101247.59;1702467;83;21164;-45
2021/03/05 11:35:04;;;;;;;28.40;19.23;;;;;;;13.62;50.05;101244.81;1708799;83;21361;-45
2021/03/05 11:37:32;;;;;;;26.33;19.92;;;;;;;13.67;49.99;101240.30;1710923;83;21163;-45
2021/03/05 11:40:03;;;;;;;31.15;19.77;;;;;;;13.69;49.84;101241.12;1712015;83;21176;-45